sensor_id;sensor_type;location;lat;lon;timestamp;temperature;humidity
20498;DHT22;10407;53.238;10.448;2023-03-18T00:01:20;10.60;99.90
20498;DHT22;10407;53.238;10.448;2023-03-18T00:03:48;10.70;99.90
20498;DHT22;10407;53.238;10.448;2023-03-18T00:06:17;10.60;99.90
20498;DHT22;10407;53.238;10.448;2023-03-18T00:08:47;10.50;99.90
20498;DHT22;10407;53.238;10.448;2023-03-18T00:11:17;10.60;99.90
20498;DHT22;10407;53.238;10.448;2023-03-18T00:13:45;10.70;99.90
20498;DHT22;10407;53.238;10.448;2023-03-18T00:16:15;10.80;99.90
20498;DHT22;10407;53.238;10.448;2023-03-18T00:18:43;10.80;99.90
20498;DHT22;10407;53.238;10.448;2023-03-18T00:21:10;10.70;99.90
20498;DHT22;10407;53.238;10.448;2023-03-18T00:23:38;10.70;99.90
20498;DHT22;10407;53.238;10.448;2023-03-18T00:26:06;10.70;99.90
20498;DHT22;10407;53.238;10.448;2023-03-18T00:28:35;10.70;99.90
20498;DHT22;10407;53.238;10.448;2023-03-18T00:31:06;10.50;99.90
20498;DHT22;10407;53.238;10.448;2023-03-18T00:33:38;10.50;99.90
20498;DHT22;10407;53.238;10.448;2023-03-18T00:36:13;10.50;99.90
20498;DHT22;10407;53.238;10.448;2023-03-18T00:38:41;10.50;99.90
20498;DHT22;10407;53.238;10.448;2023-03-18T00:41:09;10.60;99.90
20498;DHT22;10407;53.238;10.448;2023-03-18T00:43:46;10.50;99.90
20498;DHT22;10407;53.238;10.448;2023-03-18T00:46:17;10.50;99.90
20498;DHT22;10407;53.238;10.448;2023-03-18T00:48:46;10.60;99.90
20498;DHT22;10407;53.238;10.448;2023-03-18T00:51:15;10.50;99.90
20498;DHT22;10407;53.238;10.448;2023-03-18T00:53:44;10.50;99.90
20498;DHT22;10407;53.238;10.448;2023-03-18T00:56:13;10.40;99.90
20498;DHT22;10407;53.238;10.448;2023-03-18T00:58:41;10.40;99.90
20498;DHT22;10407;53.238;10.448;2023-03-18T01:01:09;10.40;99.90
20498;DHT22;10407;53.238;10.448;2023-03-18T01:03:38;10.50;99.90
20498;DHT22;10407;53.238;10.448;2023-03-18T01:06:14;10.50;99.90
20498;DHT22;10407;53.238;10.448;2023-03-18T01:08:38;10.50;99.90
20498;DHT22;10407;53.238;10.448;2023-03-18T01:11:06;10.40;99.90
20498;DHT22;10407;53.238;10.448;2023-03-18T01:13:35;10.40;99.90
20498;DHT22;10407;53.238;10.448;2023-03-18T01:16:03;10.50;99.90
20498;DHT22;10407;53.238;10.448;2023-03-18T01:18:31;10.50;99.90
20498;DHT22;10407;53.238;10.448;2023-03-18T01:21:00;10.50;99.90
20498;DHT22;10407;53.238;10.448;2023-03-18T01:23:27;10.40;99.90
20498;DHT22;10407;53.238;10.448;2023-03-18T01:25:56;10.30;99.90
20498;DHT22;10407;53.238;10.448;2023-03-18T01:28:24;10.20;99.90
20498;DHT22;10407;53.238;10.448;2023-03-18T01:30:53;10.40;99.90
20498;DHT22;10407;53.238;10.448;2023-03-18T01:33:21;10.50;99.90
20498;DHT22;10407;53.238;10.448;2023-03-18T01:35:53;10.50;99.90
20498;DHT22;10407;53.238;10.448;2023-03-18T01:38:22;10.50;99.90
20498;DHT22;10407;53.238;10.448;2023-03-18T01:40:51;10.50;99.90
20498;DHT22;10407;53.238;10.448;2023-03-18T01:43:23;10.40;99.90
20498;DHT22;10407;53.238;10.448;2023-03-18T01:45:54;10.30;99.90
20498;DHT22;10407;53.238;10.448;2023-03-18T01:48:24;10.30;99.90
20498;DHT22;10407;53.238;10.448;2023-03-18T01:50:59;10.20;99.90
20498;DHT22;10407;53.238;10.448;2023-03-18T01:53:27;10.30;99.90
20498;DHT22;10407;53.238;10.448;2023-03-18T01:55:56;10.40;99.90
20498;DHT22;10407;53.238;10.448;2023-03-18T01:58:27;10.20;99.90
20498;DHT22;10407;53.238;10.448;2023-03-18T02:00:59;10.20;99.90
20498;DHT22;10407;53.238;10.448;2023-03-18T02:03:26;10.30;99.90
20498;DHT22;10407;53.238;10.448;2023-03-18T02:05:54;10.40;99.90
20498;DHT22;10407;53.238;10.448;2023-03-18T02:08:22;10.30;99.90
20498;DHT22;10407;53.238;10.448;2023-03-18T02:10:49;10.40;99.90
20498;DHT22;10407;53.238;10.448;2023-03-18T02:13:18;10.50;99.90
20498;DHT22;10407;53.238;10.448;2023-03-18T02:15:51;10.50;99.90
20498;DHT22;10407;53.238;10.448;2023-03-18T02:18:26;10.30;99.90
20498;DHT22;10407;53.238;10.448;2023-03-18T02:24:48;10.10;99.90
20498;DHT22;10407;53.238;10.448;2023-03-18T02:26:45;10.10;99.90
20498;DHT22;10407;53.238;10.448;2023-03-18T02:29:11;10.00;99.90
20498;DHT22;10407;53.238;10.448;2023-03-18T02:31:41;10.10;99.90
20498;DHT22;10407;53.238;10.448;2023-03-18T02:34:10;10.10;99.90
20498;DHT22;10407;53.238;10.448;2023-03-18T02:36:38;10.10;99.90
20498;DHT22;10407;53.238;10.448;2023-03-18T02:39:10;10.10;99.90
20498;DHT22;10407;53.238;10.448;2023-03-18T02:41:36;10.20;99.90
20498;DHT22;10407;53.238;10.448;2023-03-18T02:44:04;10.00;99.90
20498;DHT22;10407;53.238;10.448;2023-03-18T02:46:46;10.10;99.90
20498;DHT22;10407;53.238;10.448;2023-03-18T02:49:11;10.10;99.90
20498;DHT22;10407;53.238;10.448;2023-03-18T02:51:40;10.20;99.90
20498;DHT22;10407;53.238;10.448;2023-03-18T02:54:10;10.30;99.90
20498;DHT22;10407;53.238;10.448;2023-03-18T02:56:39;10.40;99.90
20498;DHT22;10407;53.238;10.448;2023-03-18T02:59:08;10.40;99.90
20498;DHT22;10407;53.238;10.448;2023-03-18T03:01:38;10.50;99.90
20498;DHT22;10407;53.238;10.448;2023-03-18T03:04:06;10.60;99.90
20498;DHT22;10407;53.238;10.448;2023-03-18T03:06:34;10.50;99.90
20498;DHT22;10407;53.238;10.448;2023-03-18T03:09:04;10.50;99.90
20498;DHT22;10407;53.238;10.448;2023-03-18T03:11:32;10.30;99.90
20498;DHT22;10407;53.238;10.448;2023-03-18T03:14:00;10.40;99.90
20498;DHT22;10407;53.238;10.448;2023-03-18T03:16:28;10.40;99.90
20498;DHT22;10407;53.238;10.448;2023-03-18T03:18:56;10.20;99.90
20498;DHT22;10407;53.238;10.448;2023-03-18T03:21:24;10.20;99.90
20498;DHT22;10407;53.238;10.448;2023-03-18T03:23:52;10.40;99.90
20498;DHT22;10407;53.238;10.448;2023-03-18T03:26:20;10.50;99.90
20498;DHT22;10407;53.238;10.448;2023-03-18T03:28:47;10.40;99.90
20498;DHT22;10407;53.238;10.448;2023-03-18T03:31:15;10.40;99.90
20498;DHT22;10407;53.238;10.448;2023-03-18T03:33:43;10.30;99.90
20498;DHT22;10407;53.238;10.448;2023-03-18T03:36:15;10.30;99.90
20498;DHT22;10407;53.238;10.448;2023-03-18T03:38:41;10.30;99.90
20498;DHT22;10407;53.238;10.448;2023-03-18T03:41:10;10.30;99.90
20498;DHT22;10407;53.238;10.448;2023-03-18T03:43:40;10.40;99.90
20498;DHT22;10407;53.238;10.448;2023-03-18T03:46:08;10.50;99.90
20498;DHT22;10407;53.238;10.448;2023-03-18T03:48:37;10.50;99.90
20498;DHT22;10407;53.238;10.448;2023-03-18T03:51:05;10.30;99.90
20498;DHT22;10407;53.238;10.448;2023-03-18T03:53:33;10.10;99.90
20498;DHT22;10407;53.238;10.448;2023-03-18T03:56:02;10.20;99.90
20498;DHT22;10407;53.238;10.448;2023-03-18T03:58:30;10.20;99.90
20498;DHT22;10407;53.238;10.448;2023-03-18T04:00:58;10.20;99.90
20498;DHT22;10407;53.238;10.448;2023-03-18T04:03:25;10.30;99.90
20498;DHT22;10407;53.238;10.448;2023-03-18T04:05:53;10.40;99.90
20498;DHT22;10407;53.238;10.448;2023-03-18T04:08:22;10.50;99.90
20498;DHT22;10407;53.238;10.448;2023-03-18T04:10:49;10.50;99.90
20498;DHT22;10407;53.238;10.448;2023-03-18T04:13:17;10.50;99.90
20498;DHT22;10407;53.238;10.448;2023-03-18T04:15:44;10.50;99.90
20498;DHT22;10407;53.238;10.448;2023-03-18T04:18:13;10.40;99.90
20498;DHT22;10407;53.238;10.448;2023-03-18T04:20:42;10.40;99.90
20498;DHT22;10407;53.238;10.448;2023-03-18T04:23:10;10.40;99.90
20498;DHT22;10407;53.238;10.448;2023-03-18T04:25:38;10.50;99.90
20498;DHT22;10407;53.238;10.448;2023-03-18T04:28:05;10.40;99.90
20498;DHT22;10407;53.238;10.448;2023-03-18T04:30:33;10.50;99.90
20498;DHT22;10407;53.238;10.448;2023-03-18T04:33:00;10.40;99.90
20498;DHT22;10407;53.238;10.448;2023-03-18T04:35:28;10.40;99.90
20498;DHT22;10407;53.238;10.448;2023-03-18T04:37:56;10.40;99.90
20498;DHT22;10407;53.238;10.448;2023-03-18T04:40:24;10.40;99.90
20498;DHT22;10407;53.238;10.448;2023-03-18T04:42:52;10.30;99.90
20498;DHT22;10407;53.238;10.448;2023-03-18T04:45:19;10.30;99.90
20498;DHT22;10407;53.238;10.448;2023-03-18T04:47:47;10.30;99.90
20498;DHT22;10407;53.238;10.448;2023-03-18T04:50:14;10.30;99.90
20498;DHT22;10407;53.238;10.448;2023-03-18T04:52:43;10.30;99.90
20498;DHT22;10407;53.238;10.448;2023-03-18T04:55:12;10.40;99.90
20498;DHT22;10407;53.238;10.448;2023-03-18T04:57:41;10.30;99.90
20498;DHT22;10407;53.238;10.448;2023-03-18T05:00:13;10.40;99.90
20498;DHT22;10407;53.238;10.448;2023-03-18T05:02:40;10.30;99.90
20498;DHT22;10407;53.238;10.448;2023-03-18T05:05:08;10.20;99.90
20498;DHT22;10407;53.238;10.448;2023-03-18T05:07:36;10.20;99.90
20498;DHT22;10407;53.238;10.448;2023-03-18T05:10:06;10.30;99.90
20498;DHT22;10407;53.238;10.448;2023-03-18T05:12:35;10.30;99.90
20498;DHT22;10407;53.238;10.448;2023-03-18T05:15:03;10.40;99.90
20498;DHT22;10407;53.238;10.448;2023-03-18T05:17:31;10.30;99.90
20498;DHT22;10407;53.238;10.448;2023-03-18T05:19:59;10.30;99.90
20498;DHT22;10407;53.238;10.448;2023-03-18T05:22:27;10.30;99.90
20498;DHT22;10407;53.238;10.448;2023-03-18T05:24:54;10.30;99.90
20498;DHT22;10407;53.238;10.448;2023-03-18T05:27:22;10.30;99.90
20498;DHT22;10407;53.238;10.448;2023-03-18T05:29:49;10.30;99.90
20498;DHT22;10407;53.238;10.448;2023-03-18T05:32:17;10.30;99.90
20498;DHT22;10407;53.238;10.448;2023-03-18T05:34:45;10.30;99.90
20498;DHT22;10407;53.238;10.448;2023-03-18T05:37:13;10.40;99.90
20498;DHT22;10407;53.238;10.448;2023-03-18T05:39:41;10.40;99.90
20498;DHT22;10407;53.238;10.448;2023-03-18T05:42:09;10.30;99.90
20498;DHT22;10407;53.238;10.448;2023-03-18T05:44:37;10.30;99.90
20498;DHT22;10407;53.238;10.448;2023-03-18T05:47:05;10.40;99.90
20498;DHT22;10407;53.238;10.448;2023-03-18T05:49:34;10.40;99.90
20498;DHT22;10407;53.238;10.448;2023-03-18T05:52:02;10.30;99.90
20498;DHT22;10407;53.238;10.448;2023-03-18T05:54:30;10.40;99.90
20498;DHT22;10407;53.238;10.448;2023-03-18T05:56:58;10.40;99.90
20498;DHT22;10407;53.238;10.448;2023-03-18T05:59:25;10.50;99.90
20498;DHT22;10407;53.238;10.448;2023-03-18T06:01:53;10.30;99.90
20498;DHT22;10407;53.238;10.448;2023-03-18T06:04:21;10.40;99.90
20498;DHT22;10407;53.238;10.448;2023-03-18T06:06:48;10.30;99.90
20498;DHT22;10407;53.238;10.448;2023-03-18T06:09:16;10.40;99.90
20498;DHT22;10407;53.238;10.448;2023-03-18T06:11:44;10.40;99.90
20498;DHT22;10407;53.238;10.448;2023-03-18T06:14:11;10.30;99.90
20498;DHT22;10407;53.238;10.448;2023-03-18T06:16:40;10.40;99.90
20498;DHT22;10407;53.238;10.448;2023-03-18T06:19:08;10.40;99.90
20498;DHT22;10407;53.238;10.448;2023-03-18T06:21:40;10.40;99.90
20498;DHT22;10407;53.238;10.448;2023-03-18T06:24:08;10.40;99.90
20498;DHT22;10407;53.238;10.448;2023-03-18T06:26:36;10.40;99.90
20498;DHT22;10407;53.238;10.448;2023-03-18T06:29:03;10.50;99.90
20498;DHT22;10407;53.238;10.448;2023-03-18T06:31:33;10.30;99.90
20498;DHT22;10407;53.238;10.448;2023-03-18T06:34:02;10.40;99.90
20498;DHT22;10407;53.238;10.448;2023-03-18T06:36:30;10.50;99.90
20498;DHT22;10407;53.238;10.448;2023-03-18T06:38:58;10.60;99.90
20498;DHT22;10407;53.238;10.448;2023-03-18T06:41:26;10.50;99.90
20498;DHT22;10407;53.238;10.448;2023-03-18T06:43:53;10.60;99.90
20498;DHT22;10407;53.238;10.448;2023-03-18T06:46:21;10.70;99.90
20498;DHT22;10407;53.238;10.448;2023-03-18T06:48:49;10.70;99.90
20498;DHT22;10407;53.238;10.448;2023-03-18T06:51:16;10.90;99.90
20498;DHT22;10407;53.238;10.448;2023-03-18T06:53:44;11.20;99.90
20498;DHT22;10407;53.238;10.448;2023-03-18T06:56:11;11.40;99.90
20498;DHT22;10407;53.238;10.448;2023-03-18T06:58:41;11.30;99.90
20498;DHT22;10407;53.238;10.448;2023-03-18T07:01:10;11.20;99.90
20498;DHT22;10407;53.238;10.448;2023-03-18T07:03:38;11.40;99.90
20498;DHT22;10407;53.238;10.448;2023-03-18T07:06:06;11.70;99.90
20498;DHT22;10407;53.238;10.448;2023-03-18T07:08:35;11.90;99.90
20498;DHT22;10407;53.238;10.448;2023-03-18T07:11:04;12.20;99.90
20498;DHT22;10407;53.238;10.448;2023-03-18T07:13:32;12.00;99.90
20498;DHT22;10407;53.238;10.448;2023-03-18T07:16:00;12.30;99.90
20498;DHT22;10407;53.238;10.448;2023-03-18T07:18:27;12.00;99.90
20498;DHT22;10407;53.238;10.448;2023-03-18T07:20:55;11.90;99.90
20498;DHT22;10407;53.238;10.448;2023-03-18T07:23:24;11.70;99.90
20498;DHT22;10407;53.238;10.448;2023-03-18T07:25:52;12.00;99.90
20498;DHT22;10407;53.238;10.448;2023-03-18T07:28:20;12.80;99.90
20498;DHT22;10407;53.238;10.448;2023-03-18T07:30:47;13.30;99.90
20498;DHT22;10407;53.238;10.448;2023-03-18T07:33:15;13.20;99.90
20498;DHT22;10407;53.238;10.448;2023-03-18T07:35:43;13.10;99.90
20498;DHT22;10407;53.238;10.448;2023-03-18T07:38:11;13.60;99.90
20498;DHT22;10407;53.238;10.448;2023-03-18T07:40:39;13.90;99.90
20498;DHT22;10407;53.238;10.448;2023-03-18T07:43:08;14.10;99.90
20498;DHT22;10407;53.238;10.448;2023-03-18T07:45:35;13.90;99.90
20498;DHT22;10407;53.238;10.448;2023-03-18T07:48:04;14.10;99.90
20498;DHT22;10407;53.238;10.448;2023-03-18T07:50:31;14.00;99.90
20498;DHT22;10407;53.238;10.448;2023-03-18T07:52:59;14.40;99.90
20498;DHT22;10407;53.238;10.448;2023-03-18T07:55:27;14.60;99.90
20498;DHT22;10407;53.238;10.448;2023-03-18T07:57:55;14.70;99.90
20498;DHT22;10407;53.238;10.448;2023-03-18T08:00:23;14.50;99.90
20498;DHT22;10407;53.238;10.448;2023-03-18T08:02:51;14.60;99.90
20498;DHT22;10407;53.238;10.448;2023-03-18T08:05:19;14.30;99.90
20498;DHT22;10407;53.238;10.448;2023-03-18T08:07:47;14.20;99.90
20498;DHT22;10407;53.238;10.448;2023-03-18T08:10:15;14.40;99.90
20498;DHT22;10407;53.238;10.448;2023-03-18T08:12:42;15.00;99.90
20498;DHT22;10407;53.238;10.448;2023-03-18T08:15:10;15.40;99.90
20498;DHT22;10407;53.238;10.448;2023-03-18T08:17:38;15.40;99.90
20498;DHT22;10407;53.238;10.448;2023-03-18T08:20:07;15.40;99.90
20498;DHT22;10407;53.238;10.448;2023-03-18T08:22:35;15.00;99.90
20498;DHT22;10407;53.238;10.448;2023-03-18T08:25:02;15.10;99.90
20498;DHT22;10407;53.238;10.448;2023-03-18T08:27:30;15.10;99.90
20498;DHT22;10407;53.238;10.448;2023-03-18T08:29:58;14.50;99.90
20498;DHT22;10407;53.238;10.448;2023-03-18T08:32:25;14.60;99.90
20498;DHT22;10407;53.238;10.448;2023-03-18T08:34:53;14.50;99.90
20498;DHT22;10407;53.238;10.448;2023-03-18T08:37:20;15.00;99.90
20498;DHT22;10407;53.238;10.448;2023-03-18T08:39:48;15.60;99.90
20498;DHT22;10407;53.238;10.448;2023-03-18T08:42:15;15.90;99.90
20498;DHT22;10407;53.238;10.448;2023-03-18T08:44:44;16.60;99.90
20498;DHT22;10407;53.238;10.448;2023-03-18T08:47:12;16.90;99.90
20498;DHT22;10407;53.238;10.448;2023-03-18T08:49:40;16.60;99.90
20498;DHT22;10407;53.238;10.448;2023-03-18T08:52:07;17.30;99.90
20498;DHT22;10407;53.238;10.448;2023-03-18T08:54:36;17.40;99.90
20498;DHT22;10407;53.238;10.448;2023-03-18T08:57:03;17.30;99.90
20498;DHT22;10407;53.238;10.448;2023-03-18T08:59:31;17.20;99.90
20498;DHT22;10407;53.238;10.448;2023-03-18T09:01:59;17.00;99.90
20498;DHT22;10407;53.238;10.448;2023-03-18T09:04:26;16.40;99.90
20498;DHT22;10407;53.238;10.448;2023-03-18T09:06:54;16.70;99.90
20498;DHT22;10407;53.238;10.448;2023-03-18T09:09:22;17.00;99.90
20498;DHT22;10407;53.238;10.448;2023-03-18T09:11:50;16.20;99.90
20498;DHT22;10407;53.238;10.448;2023-03-18T09:14:18;16.40;99.90
20498;DHT22;10407;53.238;10.448;2023-03-18T09:16:45;16.60;99.90
20498;DHT22;10407;53.238;10.448;2023-03-18T09:19:13;17.10;99.90
20498;DHT22;10407;53.238;10.448;2023-03-18T09:21:40;17.20;99.90
20498;DHT22;10407;53.238;10.448;2023-03-18T09:24:08;16.80;99.90
20498;DHT22;10407;53.238;10.448;2023-03-18T09:26:37;16.40;99.90
20498;DHT22;10407;53.238;10.448;2023-03-18T09:29:05;17.10;99.90
20498;DHT22;10407;53.238;10.448;2023-03-18T09:31:32;16.90;99.90
20498;DHT22;10407;53.238;10.448;2023-03-18T09:34:00;17.10;99.90
20498;DHT22;10407;53.238;10.448;2023-03-18T09:36:28;17.40;99.90
20498;DHT22;10407;53.238;10.448;2023-03-18T09:38:55;17.30;99.90
20498;DHT22;10407;53.238;10.448;2023-03-18T09:41:28;17.90;99.90
20498;DHT22;10407;53.238;10.448;2023-03-18T09:44:01;18.10;99.90
20498;DHT22;10407;53.238;10.448;2023-03-18T09:46:44;18.20;99.90
20498;DHT22;10407;53.238;10.448;2023-03-18T09:49:18;17.80;99.90
20498;DHT22;10407;53.238;10.448;2023-03-18T09:54:42;17.70;99.90
20498;DHT22;10407;53.238;10.448;2023-03-18T09:57:13;17.50;99.90
20498;DHT22;10407;53.238;10.448;2023-03-18T09:59:48;18.10;99.90
20498;DHT22;10407;53.238;10.448;2023-03-18T10:02:26;18.40;99.90
20498;DHT22;10407;53.238;10.448;2023-03-18T10:04:56;18.20;99.90
20498;DHT22;10407;53.238;10.448;2023-03-18T10:07:33;18.80;99.90
20498;DHT22;10407;53.238;10.448;2023-03-18T10:10:07;18.80;99.90
20498;DHT22;10407;53.238;10.448;2023-03-18T10:12:42;18.20;99.90
20498;DHT22;10407;53.238;10.448;2023-03-18T10:15:22;17.50;99.90
20498;DHT22;10407;53.238;10.448;2023-03-18T10:17:55;16.40;99.90
20498;DHT22;10407;53.238;10.448;2023-03-18T10:25:53;16.30;99.90
20498;DHT22;10407;53.238;10.448;2023-03-18T10:28:51;16.50;99.90
20498;DHT22;10407;53.238;10.448;2023-03-18T10:34:08;16.40;99.90
20498;DHT22;10407;53.238;10.448;2023-03-18T10:39:11;16.20;99.90
20498;DHT22;10407;53.238;10.448;2023-03-18T10:41:39;16.30;99.90
20498;DHT22;10407;53.238;10.448;2023-03-18T10:44:29;16.20;99.90
20498;DHT22;10407;53.238;10.448;2023-03-18T10:47:00;16.20;99.90
20498;DHT22;10407;53.238;10.448;2023-03-18T10:49:34;16.10;99.90
20498;DHT22;10407;53.238;10.448;2023-03-18T10:52:08;16.50;99.90
20498;DHT22;10407;53.238;10.448;2023-03-18T10:54:40;17.20;99.90
20498;DHT22;10407;53.238;10.448;2023-03-18T10:57:14;17.30;99.90
20498;DHT22;10407;53.238;10.448;2023-03-18T10:59:43;18.00;99.90
20498;DHT22;10407;53.238;10.448;2023-03-18T11:02:29;18.40;99.90
20498;DHT22;10407;53.238;10.448;2023-03-18T11:05:24;18.10;99.90
20498;DHT22;10407;53.238;10.448;2023-03-18T11:10:27;17.00;99.90
20498;DHT22;10407;53.238;10.448;2023-03-18T11:12:58;17.00;99.90
20498;DHT22;10407;53.238;10.448;2023-03-18T11:15:38;16.90;99.90
20498;DHT22;10407;53.238;10.448;2023-03-18T11:18:13;16.90;99.90
20498;DHT22;10407;53.238;10.448;2023-03-18T11:20:42;16.60;99.90
20498;DHT22;10407;53.238;10.448;2023-03-18T11:23:34;16.70;99.90
20498;DHT22;10407;53.238;10.448;2023-03-18T11:26:28;16.80;99.90
20498;DHT22;10407;53.238;10.448;2023-03-18T11:28:58;16.80;99.90
20498;DHT22;10407;53.238;10.448;2023-03-18T11:31:26;16.80;99.90
20498;DHT22;10407;53.238;10.448;2023-03-18T11:33:58;16.60;99.90
20498;DHT22;10407;53.238;10.448;2023-03-18T11:36:27;16.70;99.90
20498;DHT22;10407;53.238;10.448;2023-03-18T11:39:01;16.70;99.90
20498;DHT22;10407;53.238;10.448;2023-03-18T11:41:28;16.60;99.90
20498;DHT22;10407;53.238;10.448;2023-03-18T11:44:01;16.60;99.90
20498;DHT22;10407;53.238;10.448;2023-03-18T11:46:34;16.50;99.90
20498;DHT22;10407;53.238;10.448;2023-03-18T11:49:03;16.60;99.90
20498;DHT22;10407;53.238;10.448;2023-03-18T11:51:37;16.60;99.90
20498;DHT22;10407;53.238;10.448;2023-03-18T11:56:52;16.70;99.90
20498;DHT22;10407;53.238;10.448;2023-03-18T11:59:29;16.70;99.90
20498;DHT22;10407;53.238;10.448;2023-03-18T12:05:13;16.90;99.90
20498;DHT22;10407;53.238;10.448;2023-03-18T12:07:58;17.00;99.90
20498;DHT22;10407;53.238;10.448;2023-03-18T12:10:48;17.00;99.90
20498;DHT22;10407;53.238;10.448;2023-03-18T12:21:07;16.80;99.90
20498;DHT22;10407;53.238;10.448;2023-03-18T12:23:38;16.50;99.90
20498;DHT22;10407;53.238;10.448;2023-03-18T12:43:08;17.10;99.90
20498;DHT22;10407;53.238;10.448;2023-03-18T12:45:38;17.10;99.90
20498;DHT22;10407;53.238;10.448;2023-03-18T12:48:23;16.90;99.90
20498;DHT22;10407;53.238;10.448;2023-03-18T12:51:07;16.90;99.90
20498;DHT22;10407;53.238;10.448;2023-03-18T12:53:42;16.90;99.90
20498;DHT22;10407;53.238;10.448;2023-03-18T12:56:17;16.90;99.90
20498;DHT22;10407;53.238;10.448;2023-03-18T12:58:51;17.00;99.90
20498;DHT22;10407;53.238;10.448;2023-03-18T13:01:34;16.50;99.90
20498;DHT22;10407;53.238;10.448;2023-03-18T13:04:09;16.40;99.90
20498;DHT22;10407;53.238;10.448;2023-03-18T13:06:47;16.50;99.90
20498;DHT22;10407;53.238;10.448;2023-03-18T13:15:21;16.90;99.90
20498;DHT22;10407;53.238;10.448;2023-03-18T13:17:36;16.90;99.90
20498;DHT22;10407;53.238;10.448;2023-03-18T13:20:22;16.80;99.90
20498;DHT22;10407;53.238;10.448;2023-03-18T13:25:52;17.20;99.90
20498;DHT22;10407;53.238;10.448;2023-03-18T13:31:19;17.20;99.90
20498;DHT22;10407;53.238;10.448;2023-03-18T13:42:29;17.20;99.90
20498;DHT22;10407;53.238;10.448;2023-03-18T13:47:58;17.10;99.90
20498;DHT22;10407;53.238;10.448;2023-03-18T13:50:32;17.10;99.90
20498;DHT22;10407;53.238;10.448;2023-03-18T13:53:02;17.10;99.90
20498;DHT22;10407;53.238;10.448;2023-03-18T14:01:13;16.90;99.90
20498;DHT22;10407;53.238;10.448;2023-03-18T14:06:23;16.80;99.90
20498;DHT22;10407;53.238;10.448;2023-03-18T14:08:52;16.90;99.90
20498;DHT22;10407;53.238;10.448;2023-03-18T14:13:58;16.60;99.90
20498;DHT22;10407;53.238;10.448;2023-03-18T14:16:29;16.60;99.90
20498;DHT22;10407;53.238;10.448;2023-03-18T14:19:16;16.60;99.90
20498;DHT22;10407;53.238;10.448;2023-03-18T14:21:32;16.70;99.90
20498;DHT22;10407;53.238;10.448;2023-03-18T14:29:41;16.70;99.90
20498;DHT22;10407;53.238;10.448;2023-03-18T14:35:28;16.50;99.90
20498;DHT22;10407;53.238;10.448;2023-03-18T14:38:02;16.40;99.90
20498;DHT22;10407;53.238;10.448;2023-03-18T14:40:34;16.60;99.90
20498;DHT22;10407;53.238;10.448;2023-03-18T14:43:14;16.40;99.90
20498;DHT22;10407;53.238;10.448;2023-03-18T14:45:41;16.20;99.90
20498;DHT22;10407;53.238;10.448;2023-03-18T14:48:19;16.30;99.90
20498;DHT22;10407;53.238;10.448;2023-03-18T14:50:52;16.40;99.90
20498;DHT22;10407;53.238;10.448;2023-03-18T14:53:30;16.40;99.90
20498;DHT22;10407;53.238;10.448;2023-03-18T14:58:46;16.50;99.90
20498;DHT22;10407;53.238;10.448;2023-03-18T15:01:16;16.60;99.90
20498;DHT22;10407;53.238;10.448;2023-03-18T15:03:46;16.60;99.90
20498;DHT22;10407;53.238;10.448;2023-03-18T15:06:24;16.70;99.90
20498;DHT22;10407;53.238;10.448;2023-03-18T15:09:00;16.70;99.90
20498;DHT22;10407;53.238;10.448;2023-03-18T15:11:25;16.80;99.90
20498;DHT22;10407;53.238;10.448;2023-03-18T15:13:55;16.80;99.90
20498;DHT22;10407;53.238;10.448;2023-03-18T15:16:24;16.90;99.90
20498;DHT22;10407;53.238;10.448;2023-03-18T15:18:54;16.80;99.90
20498;DHT22;10407;53.238;10.448;2023-03-18T15:21:25;16.50;99.90
20498;DHT22;10407;53.238;10.448;2023-03-18T15:23:59;16.40;99.90
20498;DHT22;10407;53.238;10.448;2023-03-18T15:26:33;16.40;99.90
20498;DHT22;10407;53.238;10.448;2023-03-18T15:29:07;16.40;99.90
20498;DHT22;10407;53.238;10.448;2023-03-18T15:31:34;16.50;99.90
20498;DHT22;10407;53.238;10.448;2023-03-18T15:34:14;16.50;99.90
20498;DHT22;10407;53.238;10.448;2023-03-18T15:36:44;16.50;99.90
20498;DHT22;10407;53.238;10.448;2023-03-18T15:39:33;16.60;99.90
20498;DHT22;10407;53.238;10.448;2023-03-18T15:42:23;16.70;99.90
20498;DHT22;10407;53.238;10.448;2023-03-18T15:44:36;16.40;99.90
20498;DHT22;10407;53.238;10.448;2023-03-18T15:47:16;16.60;99.90
20498;DHT22;10407;53.238;10.448;2023-03-18T15:49:56;16.50;99.90
20498;DHT22;10407;53.238;10.448;2023-03-18T15:52:32;16.40;99.90
20498;DHT22;10407;53.238;10.448;2023-03-18T15:55:02;16.40;99.90
20498;DHT22;10407;53.238;10.448;2023-03-18T15:57:33;16.30;99.90
20498;DHT22;10407;53.238;10.448;2023-03-18T16:00:01;16.20;99.90
20498;DHT22;10407;53.238;10.448;2023-03-18T16:02:33;16.00;99.90
20498;DHT22;10407;53.238;10.448;2023-03-18T16:05:05;15.70;99.90
20498;DHT22;10407;53.238;10.448;2023-03-18T16:07:33;15.70;99.90
20498;DHT22;10407;53.238;10.448;2023-03-18T16:10:01;15.60;99.90
20498;DHT22;10407;53.238;10.448;2023-03-18T16:12:29;15.70;99.90
20498;DHT22;10407;53.238;10.448;2023-03-18T16:14:57;15.60;99.90
20498;DHT22;10407;53.238;10.448;2023-03-18T16:17:26;15.60;99.90
20498;DHT22;10407;53.238;10.448;2023-03-18T16:19:53;15.60;99.90
20498;DHT22;10407;53.238;10.448;2023-03-18T16:22:23;15.50;99.90
20498;DHT22;10407;53.238;10.448;2023-03-18T16:24:50;15.50;99.90
20498;DHT22;10407;53.238;10.448;2023-03-18T16:27:32;15.50;99.90
20498;DHT22;10407;53.238;10.448;2023-03-18T16:29:55;15.50;99.90
20498;DHT22;10407;53.238;10.448;2023-03-18T16:32:22;15.50;99.90
20498;DHT22;10407;53.238;10.448;2023-03-18T16:34:50;15.50;99.90
20498;DHT22;10407;53.238;10.448;2023-03-18T16:37:23;15.50;99.90
20498;DHT22;10407;53.238;10.448;2023-03-18T16:39:52;15.50;99.90
20498;DHT22;10407;53.238;10.448;2023-03-18T16:42:24;15.40;99.90
20498;DHT22;10407;53.238;10.448;2023-03-18T16:44:52;15.30;99.90
20498;DHT22;10407;53.238;10.448;2023-03-18T16:47:24;15.50;99.90
20498;DHT22;10407;53.238;10.448;2023-03-18T16:49:51;15.50;99.90
20498;DHT22;10407;53.238;10.448;2023-03-18T16:52:20;15.40;99.90
20498;DHT22;10407;53.238;10.448;2023-03-18T16:54:48;15.40;99.90
20498;DHT22;10407;53.238;10.448;2023-03-18T16:57:20;15.50;99.90
20498;DHT22;10407;53.238;10.448;2023-03-18T16:59:51;15.40;99.90
20498;DHT22;10407;53.238;10.448;2023-03-18T17:02:28;15.30;99.90
20498;DHT22;10407;53.238;10.448;2023-03-18T17:04:56;15.10;99.90
20498;DHT22;10407;53.238;10.448;2023-03-18T17:07:23;15.10;99.90
20498;DHT22;10407;53.238;10.448;2023-03-18T17:09:52;15.10;99.90